sensor_id;sensor_type;location;lat;lon;timestamp;pressure;altitude;pressure_sealevel;temperature;humidity
36598;BME280;22607;49.550;11.940;2022-10-24T00:00:51;96742.50;;;14.55;100.00
36598;BME280;22607;49.550;11.940;2022-10-24T00:03:17;96735.16;;;14.57;100.00
36598;BME280;22607;49.550;11.940;2022-10-24T00:05:44;96712.22;;;14.57;100.00
36598;BME280;22607;49.550;11.940;2022-10-24T00:08:11;96700.44;;;14.60;100.00
36598;BME280;22607;49.550;11.940;2022-10-24T00:10:40;96705.72;;;14.67;100.00
36598;BME280;22607;49.550;11.940;2022-10-24T00:13:06;96723.41;;;14.66;100.00
36598;BME280;22607;49.550;11.940;2022-10-24T00:15:33;96716.50;;;14.65;100.00
36598;BME280;22607;49.550;11.940;2022-10-24T00:17:59;96715.47;;;14.66;100.00
36598;BME280;22607;49.550;11.940;2022-10-24T00:20:25;96726.44;;;14.63;100.00
36598;BME280;22607;49.550;11.940;2022-10-24T00:22:52;96723.19;;;14.68;100.00
36598;BME280;22607;49.550;11.940;2022-10-24T00:25:18;96734.59;;;14.68;100.00
36598;BME280;22607;49.550;11.940;2022-10-24T00:27:45;96748.00;;;14.60;100.00
36598;BME280;22607;49.550;11.940;2022-10-24T00:30:11;96759.78;;;14.64;100.00
36598;BME280;22607;49.550;11.940;2022-10-24T00:32:38;96753.09;;;14.62;100.00
36598;BME280;22607;49.550;11.940;2022-10-24T00:35:04;96755.50;;;14.63;100.00
36598;BME280;22607;49.550;11.940;2022-10-24T00:37:31;96731.28;;;14.53;100.00
36598;BME280;22607;49.550;11.940;2022-10-24T00:39:57;96711.41;;;14.70;100.00
36598;BME280;22607;49.550;11.940;2022-10-24T00:42:23;96683.97;;;14.72;100.00
36598;BME280;22607;49.550;11.940;2022-10-24T00:44:51;96677.09;;;14.77;100.00
36598;BME280;22607;49.550;11.940;2022-10-24T00:47:24;96696.00;;;14.81;100.00
36598;BME280;22607;49.550;11.940;2022-10-24T00:49:56;96710.00;;;14.75;100.00
36598;BME280;22607;49.550;11.940;2022-10-24T00:52:30;96698.03;;;14.79;100.00
36598;BME280;22607;49.550;11.940;2022-10-24T00:54:58;96685.63;;;14.93;100.00
36598;BME280;22607;49.550;11.940;2022-10-24T00:57:28;96700.06;;;14.77;100.00
36598;BME280;22607;49.550;11.940;2022-10-24T00:59:58;96705.94;;;14.72;100.00
36598;BME280;22607;49.550;11.940;2022-10-24T01:02:25;96701.44;;;14.73;100.00
36598;BME280;22607;49.550;11.940;2022-10-24T01:04:52;96707.53;;;14.73;100.00
36598;BME280;22607;49.550;11.940;2022-10-24T01:07:28;96710.81;;;14.68;100.00
36598;BME280;22607;49.550;11.940;2022-10-24T01:10:10;96705.94;;;14.72;100.00
36598;BME280;22607;49.550;11.940;2022-10-24T01:15:42;96704.28;;;14.64;100.00
36598;BME280;22607;49.550;11.940;2022-10-24T01:18:14;96701.22;;;14.61;100.00
36598;BME280;22607;49.550;11.940;2022-10-24T01:20:46;96708.75;;;14.57;100.00
36598;BME280;22607;49.550;11.940;2022-10-24T01:26:10;96710.34;;;14.51;100.00
36598;BME280;22607;49.550;11.940;2022-10-24T01:31:22;96707.06;;;14.36;100.00
36598;BME280;22607;49.550;11.940;2022-10-24T01:33:52;96711.75;;;14.40;100.00
36598;BME280;22607;49.550;11.940;2022-10-24T01:36:24;96712.16;;;14.30;100.00
36598;BME280;22607;49.550;11.940;2022-10-24T01:38:58;96711.94;;;14.32;100.00
36598;BME280;22607;49.550;11.940;2022-10-24T01:41:27;96717.31;;;14.03;100.00
36598;BME280;22607;49.550;11.940;2022-10-24T01:44:02;96715.59;;;14.24;100.00
36598;BME280;22607;49.550;11.940;2022-10-24T01:46:34;96725.13;;;14.25;100.00
36598;BME280;22607;49.550;11.940;2022-10-24T01:49:14;96729.34;;;14.13;100.00
36598;BME280;22607;49.550;11.940;2022-10-24T01:51:41;96731.75;;;14.01;100.00
36598;BME280;22607;49.550;11.940;2022-10-24T01:54:08;96731.41;;;14.17;100.00
36598;BME280;22607;49.550;11.940;2022-10-24T01:56:35;96741.16;;;14.17;100.00
36598;BME280;22607;49.550;11.940;2022-10-24T01:59:38;96750.28;;;14.14;100.00
36598;BME280;22607;49.550;11.940;2022-10-24T02:04:30;96742.75;;;14.11;100.00
36598;BME280;22607;49.550;11.940;2022-10-24T02:06:59;96736.69;;;14.17;100.00
36598;BME280;22607;49.550;11.940;2022-10-24T02:09:27;96735.88;;;14.17;100.00
36598;BME280;22607;49.550;11.940;2022-10-24T02:11:55;96730.41;;;14.18;100.00
36598;BME280;22607;49.550;11.940;2022-10-24T02:14:32;96726.34;;;14.23;100.00
36598;BME280;22607;49.550;11.940;2022-10-24T02:17:00;96719.66;;;14.27;100.00
36598;BME280;22607;49.550;11.940;2022-10-24T02:19:27;96722.31;;;14.27;100.00
36598;BME280;22607;49.550;11.940;2022-10-24T02:25:23;96726.00;;;14.53;100.00
36598;BME280;22607;49.550;11.940;2022-10-24T02:27:31;96719.22;;;14.23;100.00
36598;BME280;22607;49.550;11.940;2022-10-24T02:30:00;96718.84;;;14.33;100.00
36598;BME280;22607;49.550;11.940;2022-10-24T02:32:29;96722.31;;;14.27;100.00
36598;BME280;22607;49.550;11.940;2022-10-24T02:35:00;96721.06;;;14.23;100.00
36598;BME280;22607;49.550;11.940;2022-10-24T02:37:28;96714.38;;;14.27;100.00
36598;BME280;22607;49.550;11.940;2022-10-24T02:39:56;96718.00;;;14.26;100.00
36598;BME280;22607;49.550;11.940;2022-10-24T02:42:23;96720.16;;;14.02;100.00
36598;BME280;22607;49.550;11.940;2022-10-24T02:44:51;96721.06;;;14.23;100.00
36598;BME280;22607;49.550;11.940;2022-10-24T02:47:18;96717.81;;;14.27;100.00
36598;BME280;22607;49.550;11.940;2022-10-24T02:49:46;96720.03;;;14.17;100.00
36598;BME280;22607;49.550;11.940;2022-10-24T02:52:12;96722.50;;;14.25;100.00
36598;BME280;22607;49.550;11.940;2022-10-24T02:54:39;96718.63;;;14.21;100.00
36598;BME280;22607;49.550;11.940;2022-10-24T02:57:05;96712.50;;;14.21;100.00
36598;BME280;22607;49.550;11.940;2022-10-24T02:59:32;96722.84;;;14.15;100.00
36598;BME280;22607;49.550;11.940;2022-10-24T03:01:58;96726.94;;;14.18;100.00
36598;BME280;22607;49.550;11.940;2022-10-24T03:04:25;96724.47;;;14.16;100.00
36598;BME280;22607;49.550;11.940;2022-10-24T03:06:51;96721.66;;;14.25;100.00
36598;BME280;22607;49.550;11.940;2022-10-24T03:09:18;96722.28;;;14.20;100.00
36598;BME280;22607;49.550;11.940;2022-10-24T03:11:44;96718.63;;;14.28;100.00
36598;BME280;22607;49.550;11.940;2022-10-24T03:14:11;96719.63;;;14.20;100.00
36598;BME280;22607;49.550;11.940;2022-10-24T03:16:37;96713.28;;;14.08;100.00
36598;BME280;22607;49.550;11.940;2022-10-24T03:19:04;96707.00;;;14.09;100.00
36598;BME280;22607;49.550;11.940;2022-10-24T03:21:30;96711.91;;;14.18;100.00
36598;BME280;22607;49.550;11.940;2022-10-24T03:23:57;96718.41;;;14.16;100.00
36598;BME280;22607;49.550;11.940;2022-10-24T03:26:23;96716.56;;;14.16;100.00
36598;BME280;22607;49.550;11.940;2022-10-24T03:28:50;96720.03;;;14.17;100.00
36598;BME280;22607;49.550;11.940;2022-10-24T03:31:16;96716.78;;;14.15;100.00
36598;BME280;22607;49.550;11.940;2022-10-24T03:33:42;96727.09;;;14.10;100.00
36598;BME280;22607;49.550;11.940;2022-10-24T03:36:09;96731.34;;;14.04;100.00
36598;BME280;22607;49.550;11.940;2022-10-24T03:38:35;96721.56;;;13.98;100.00
36598;BME280;22607;49.550;11.940;2022-10-24T03:41:02;96719.22;;;14.23;100.00
36598;BME280;22607;49.550;11.940;2022-10-24T03:43:28;96720.78;;;14.04;100.00
36598;BME280;22607;49.550;11.940;2022-10-24T03:45:54;96717.97;;;14.06;100.00
36598;BME280;22607;49.550;11.940;2022-10-24T03:48:21;96711.47;;;14.08;100.00
36598;BME280;22607;49.550;11.940;2022-10-24T03:50:47;96718.31;;;13.96;100.00
36598;BME280;22607;49.550;11.940;2022-10-24T03:53:13;96723.97;;;13.93;100.00
36598;BME280;22607;49.550;11.940;2022-10-24T03:55:40;96727.69;;;14.05;100.00
36598;BME280;22607;49.550;11.940;2022-10-24T03:58:07;96729.22;;;13.86;100.00
36598;BME280;22607;49.550;11.940;2022-10-24T04:00:34;96732.50;;;13.88;100.00
36598;BME280;22607;49.550;11.940;2022-10-24T04:03:06;96738.09;;;14.13;100.00
36598;BME280;22607;49.550;11.940;2022-10-24T04:05:32;96734.06;;;14.31;100.00
36598;BME280;22607;49.550;11.940;2022-10-24T04:07:59;96739.91;;;14.13;100.00
36598;BME280;22607;49.550;11.940;2022-10-24T04:10:25;96742.31;;;14.01;100.00
36598;BME280;22607;49.550;11.940;2022-10-24T04:12:52;96741.03;;;13.90;100.00
36598;BME280;22607;49.550;11.940;2022-10-24T04:15:19;96738.69;;;14.15;100.00
36598;BME280;22607;49.550;11.940;2022-10-24T04:17:45;96744.59;;;14.11;100.00
36598;BME280;22607;49.550;11.940;2022-10-24T04:20:12;96737.22;;;14.55;100.00
36598;BME280;22607;49.550;11.940;2022-10-24T04:22:39;96740.81;;;14.40;100.00
36598;BME280;22607;49.550;11.940;2022-10-24T04:25:05;96740.31;;;14.16;100.00
36598;BME280;22607;49.550;11.940;2022-10-24T04:27:32;96727.19;;;14.37;100.00
36598;BME280;22607;49.550;11.940;2022-10-24T04:29:58;96728.56;;;14.19;100.00
36598;BME280;22607;49.550;11.940;2022-10-24T04:32:24;96729.97;;;14.08;100.00
36598;BME280;22607;49.550;11.940;2022-10-24T04:34:51;96723.28;;;14.19;100.00
36598;BME280;22607;49.550;11.940;2022-10-24T04:37:17;96724.03;;;14.06;100.00
36598;BME280;22607;49.550;11.940;2022-10-24T04:39:43;96720.38;;;14.07;100.00
36598;BME280;22607;49.550;11.940;2022-10-24T04:42:10;96710.06;;;14.19;100.00
36598;BME280;22607;49.550;11.940;2022-10-24T04:44:36;96718.22;;;14.17;100.00
36598;BME280;22607;49.550;11.940;2022-10-24T04:47:02;96723.03;;;14.07;100.00
36598;BME280;22607;49.550;11.940;2022-10-24T04:49:29;96734.59;;;14.06;100.00
36598;BME280;22607;49.550;11.940;2022-10-24T04:51:55;96735.91;;;14.30;100.00
36598;BME280;22607;49.550;11.940;2022-10-24T04:54:21;96735.47;;;14.20;100.00
36598;BME280;22607;49.550;11.940;2022-10-24T04:56:48;96731.41;;;14.17;100.00
36598;BME280;22607;49.550;11.940;2022-10-24T04:59:14;96724.31;;;14.25;100.00
36598;BME280;22607;49.550;11.940;2022-10-24T05:01:41;96735.94;;;14.37;100.00
36598;BME280;22607;49.550;11.940;2022-10-24T05:04:07;96729.25;;;14.48;100.00
36598;BME280;22607;49.550;11.940;2022-10-24T05:06:34;96729.81;;;14.30;100.00
36598;BME280;22607;49.550;11.940;2022-10-24T05:09:00;96719.19;;;14.16;100.00
36598;BME280;22607;49.550;11.940;2022-10-24T05:11:27;96717.28;;;14.59;100.00
36598;BME280;22607;49.550;11.940;2022-10-24T05:13:53;96706.25;;;14.35;100.00
36598;BME280;22607;49.550;11.940;2022-10-24T05:16:19;96705.25;;;14.29;100.00
36598;BME280;22607;49.550;11.940;2022-10-24T05:18:46;96707.09;;;14.42;100.00
36598;BME280;22607;49.550;11.940;2022-10-24T05:21:12;96712.34;;;14.29;100.00
36598;BME280;22607;49.550;11.940;2022-10-24T05:23:38;96710.53;;;14.29;100.00
36598;BME280;22607;49.550;11.940;2022-10-24T05:26:05;96711.22;;;14.72;100.00
36598;BME280;22607;49.550;11.940;2022-10-24T05:28:31;96709.72;;;14.42;100.00
36598;BME280;22607;49.550;11.940;2022-10-24T05:30:58;96700.94;;;14.28;100.00
36598;BME280;22607;49.550;11.940;2022-10-24T05:33:24;96700.16;;;14.35;100.00
36598;BME280;22607;49.550;11.940;2022-10-24T05:35:51;96698.91;;;14.24;100.00
36598;BME280;22607;49.550;11.940;2022-10-24T05:38:17;96705.44;;;14.28;100.00
36598;BME280;22607;49.550;11.940;2022-10-24T05:40:44;96700.09;;;14.14;100.00
36598;BME280;22607;49.550;11.940;2022-10-24T05:43:14;96713.47;;;14.06;100.00
36598;BME280;22607;49.550;11.940;2022-10-24T05:45:42;96713.69;;;14.11;100.00
36598;BME280;22607;49.550;11.940;2022-10-24T05:48:09;96708.13;;;14.41;100.00
36598;BME280;22607;49.550;11.940;2022-10-24T05:50:35;96706.00;;;14.16;100.00
36598;BME280;22607;49.550;11.940;2022-10-24T05:53:01;96700.50;;;14.18;100.00
36598;BME280;22607;49.550;11.940;2022-10-24T05:55:28;96694.94;;;14.55;100.00
36598;BME280;22607;49.550;11.940;2022-10-24T05:57:56;96705.91;;;14.59;100.00
36598;BME280;22607;49.550;11.940;2022-10-24T06:00:22;96717.03;;;14.40;100.00
36598;BME280;22607;49.550;11.940;2022-10-24T06:02:49;96727.19;;;14.37;100.00
36598;BME280;22607;49.550;11.940;2022-10-24T06:05:15;96745.13;;;14.48;100.00
36598;BME280;22607;49.550;11.940;2022-10-24T06:07:42;96746.34;;;14.52;100.00
36598;BME280;22607;49.550;11.940;2022-10-24T06:10:09;96739.66;;;14.63;100.00
36598;BME280;22607;49.550;11.940;2022-10-24T06:12:36;96735.53;;;14.40;100.00
36598;BME280;22607;49.550;11.940;2022-10-24T06:15:03;96735.97;;;14.44;100.00
36598;BME280;22607;49.550;11.940;2022-10-24T06:17:31;96735.53;;;14.47;100.00
36598;BME280;22607;49.550;11.940;2022-10-24T06:19:57;96718.50;;;14.70;100.00
36598;BME280;22607;49.550;11.940;2022-10-24T06:22:24;96722.97;;;14.49;100.00
36598;BME280;22607;49.550;11.940;2022-10-24T06:24:52;96730.25;;;14.47;100.00
36598;BME280;22607;49.550;11.940;2022-10-24T06:27:19;96731.13;;;14.61;100.00
36598;BME280;22607;49.550;11.940;2022-10-24T06:29:45;96720.56;;;14.75;100.00
36598;BME280;22607;49.550;11.940;2022-10-24T06:32:11;96720.56;;;14.75;100.00
36598;BME280;22607;49.550;11.940;2022-10-24T06:34:38;96724.22;;;14.60;100.00
36598;BME280;22607;49.550;11.940;2022-10-24T06:37:04;96720.94;;;14.65;100.00
36598;BME280;22607;49.550;11.940;2022-10-24T06:39:31;96717.09;;;14.67;100.00
36598;BME280;22607;49.550;11.940;2022-10-24T06:41:57;96720.63;;;14.95;100.00
36598;BME280;22607;49.550;11.940;2022-10-24T06:44:23;96718.97;;;15.01;100.00
36598;BME280;22607;49.550;11.940;2022-10-24T06:46:50;96732.13;;;14.60;100.00
36598;BME280;22607;49.550;11.940;2022-10-24T06:49:16;96736.66;;;14.87;100.00
36598;BME280;22607;49.550;11.940;2022-10-24T06:51:43;96749.84;;;14.73;100.00
36598;BME280;22607;49.550;11.940;2022-10-24T06:54:09;96757.53;;;14.61;100.00
36598;BME280;22607;49.550;11.940;2022-10-24T06:56:36;96754.06;;;14.54;100.00
36598;BME280;22607;49.550;11.940;2022-10-24T06:59:06;96757.41;;;14.83;100.00
36598;BME280;22607;49.550;11.940;2022-10-24T07:01:35;96752.53;;;14.80;100.00
36598;BME280;22607;49.550;11.940;2022-10-24T07:04:01;96754.25;;;14.46;100.00
36598;BME280;22607;49.550;11.940;2022-10-24T07:06:28;96753.34;;;14.80;100.00
36598;BME280;22607;49.550;11.940;2022-10-24T07:08:56;96748.66;;;14.76;100.00
36598;BME280;22607;49.550;11.940;2022-10-24T07:11:23;96761.63;;;14.70;100.00
36598;BME280;22607;49.550;11.940;2022-10-24T07:13:50;96765.25;;;14.56;100.00
36598;BME280;22607;49.550;11.940;2022-10-24T07:16:21;96778.84;;;14.53;100.00
36598;BME280;22607;49.550;11.940;2022-10-24T07:18:48;96775.09;;;14.82;100.00
36598;BME280;22607;49.550;11.940;2022-10-24T07:21:18;96769.16;;;14.74;100.00
36598;BME280;22607;49.550;11.940;2022-10-24T07:23:45;96764.66;;;14.67;100.00
36598;BME280;22607;49.550;11.940;2022-10-24T07:26:12;96767.13;;;14.69;100.00
36598;BME280;22607;49.550;11.940;2022-10-24T07:28:40;96764.13;;;14.79;100.00
36598;BME280;22607;49.550;11.940;2022-10-24T07:31:07;96754.31;;;14.73;100.00
36598;BME280;22607;49.550;11.940;2022-10-24T07:33:35;96753.56;;;14.99;100.00
36598;BME280;22607;49.550;11.940;2022-10-24T07:36:02;96746.41;;;14.86;100.00
36598;BME280;22607;49.550;11.940;2022-10-24T07:38:29;96744.22;;;14.96;100.00
36598;BME280;22607;49.550;11.940;2022-10-24T07:40:55;96743.00;;;15.06;100.00
36598;BME280;22607;49.550;11.940;2022-10-24T07:43:22;96746.63;;;14.91;100.00
36598;BME280;22607;49.550;11.940;2022-10-24T07:45:48;96751.31;;;14.82;100.00
36598;BME280;22607;49.550;11.940;2022-10-24T07:48:17;96759.66;;;15.00;100.00
36598;BME280;22607;49.550;11.940;2022-10-24T07:50:44;96766.16;;;14.90;100.00
36598;BME280;22607;49.550;11.940;2022-10-24T07:53:11;96768.22;;;15.15;100.00
36598;BME280;22607;49.550;11.940;2022-10-24T07:55:39;96771.88;;;15.14;100.00
36598;BME280;22607;49.550;11.940;2022-10-24T07:58:08;96776.16;;;15.15;100.00
36598;BME280;22607;49.550;11.940;2022-10-24T08:00:34;96782.25;;;15.09;100.00
36598;BME280;22607;49.550;11.940;2022-10-24T08:03:01;96783.88;;;15.51;100.00
36598;BME280;22607;49.550;11.940;2022-10-24T08:05:28;96784.31;;;15.34;100.00
36598;BME280;22607;49.550;11.940;2022-10-24T08:07:54;96792.25;;;15.34;100.00
36598;BME280;22607;49.550;11.940;2022-10-24T08:10:40;96799.16;;;15.48;100.00
36598;BME280;22607;49.550;11.940;2022-10-24T08:13:12;96808.53;;;15.44;100.00
36598;BME280;22607;49.550;11.940;2022-10-24T08:15:38;96819.91;;;15.11;100.00
36598;BME280;22607;49.550;11.940;2022-10-24T08:18:05;96835.75;;;14.98;100.00
36598;BME280;22607;49.550;11.940;2022-10-24T08:20:31;96845.31;;;14.99;100.00
36598;BME280;22607;49.550;11.940;2022-10-24T08:22:58;96855.91;;;15.05;100.00
36598;BME280;22607;49.550;11.940;2022-10-24T08:25:24;96859.53;;;14.91;100.00
36598;BME280;22607;49.550;11.940;2022-10-24T08:27:50;96866.88;;;15.02;100.00
36598;BME280;22607;49.550;11.940;2022-10-24T08:30:19;96870.88;;;14.78;100.00
36598;BME280;22607;49.550;11.940;2022-10-24T08:32:45;96885.72;;;14.79;100.00
36598;BME280;22607;49.550;11.940;2022-10-24T08:35:18;96877.53;;;14.74;100.00
36598;BME280;22607;49.550;11.940;2022-10-24T08:37:45;96911.69;;;14.68;100.00
36598;BME280;22607;49.550;11.940;2022-10-24T08:40:15;96929.28;;;14.90;100.00
36598;BME280;22607;49.550;11.940;2022-10-24T08:42:42;96919.06;;;14.80;100.00
36598;BME280;22607;49.550;11.940;2022-10-24T08:45:16;96934.56;;;14.83;100.00
36598;BME280;22607;49.550;11.940;2022-10-24T08:50:24;96912.56;;;14.82;100.00
36598;BME280;22607;49.550;11.940;2022-10-24T08:53:01;96912.56;;;14.76;100.00
36598;BME280;22607;49.550;11.940;2022-10-24T08:55:39;96921.53;;;14.81;100.00
36598;BME280;22607;49.550;11.940;2022-10-24T08:58:20;96916.50;;;14.93;100.00
36598;BME280;22607;49.550;11.940;2022-10-24T09:00:49;96897.59;;;15.10;100.00
36598;BME280;22607;49.550;11.940;2022-10-24T09:03:18;96894.94;;;15.03;100.00
36598;BME280;22607;49.550;11.940;2022-10-24T09:06:07;96889.88;;;15.02;100.00
36598;BME280;22607;49.550;11.940;2022-10-24T09:08:45;96878.06;;;14.98;100.00
36598;BME280;22607;49.550;11.940;2022-10-24T09:11:30;96880.09;;;15.02;100.00
36598;BME280;22607;49.550;11.940;2022-10-24T09:14:04;96872.59;;;15.06;100.00
36598;BME280;22607;49.550;11.940;2022-10-24T09:16:33;96867.50;;;15.11;100.00
36598;BME280;22607;49.550;11.940;2022-10-24T09:19:00;96854.47;;;15.09;100.00
36598;BME280;22607;49.550;11.940;2022-10-24T09:21:26;96845.16;;;15.20;100.00
36598;BME280;22607;49.550;11.940;2022-10-24T09:23:53;96840.06;;;15.26;100.00
36598;BME280;22607;49.550;11.940;2022-10-24T09:26:24;96822.13;;;15.21;100.00
36598;BME280;22607;49.550;11.940;2022-10-24T09:28:51;96835.78;;;15.11;100.00
36598;BME280;22607;49.550;11.940;2022-10-24T09:31:21;96847.13;;;15.05;100.00
36598;BME280;22607;49.550;11.940;2022-10-24T09:33:49;96863.00;;;15.05;100.00
36598;BME280;22607;49.550;11.940;2022-10-24T09:36:16;96853.66;;;15.02;100.00
36598;BME280;22607;49.550;11.940;2022-10-24T09:38:44;96855.28;;;15.10;100.00
36598;BME280;22607;49.550;11.940;2022-10-24T09:41:25;96848.78;;;15.06;100.00
36598;BME280;22607;49.550;11.940;2022-10-24T09:43:53;96842.28;;;15.15;100.00
36598;BME280;22607;49.550;11.940;2022-10-24T09:46:22;96832.53;;;15.22;100.00
36598;BME280;22607;49.550;11.940;2022-10-24T09:48:58;96825.81;;;15.27;100.00
36598;BME280;22607;49.550;11.940;2022-10-24T09:51:42;96811.75;;;15.19;100.00
36598;BME280;22607;49.550;11.940;2022-10-24T09:56:43;96828.84;;;15.17;100.00
36598;BME280;22607;49.550;11.940;2022-10-24T10:01:49;96809.13;;;15.26;100.00
36598;BME280;22607;49.550;11.940;2022-10-24T10:04:16;96809.94;;;15.27;100.00
36598;BME280;22607;49.550;11.940;2022-10-24T10:06:44;96797.94;;;15.31;100.00
36598;BME280;22607;49.550;11.940;2022-10-24T10:09:12;96796.31;;;15.30;100.00
36598;BME280;22607;49.550;11.940;2022-10-24T10:11:39;96801.38;;;15.31;100.00
36598;BME280;22607;49.550;11.940;2022-10-24T10:14:21;96806.28;;;15.28;100.00
36598;BME280;22607;49.550;11.940;2022-10-24T10:16:58;96804.84;;;15.32;100.00
36598;BME280;22607;49.550;11.940;2022-10-24T10:19:25;96808.91;;;15.41;100.00
36598;BME280;22607;49.550;11.940;2022-10-24T10:26:58;96781.22;;;15.51;100.00
36598;BME280;22607;49.550;11.940;2022-10-24T10:29:24;96781.63;;;15.54;100.00
36598;BME280;22607;49.550;11.940;2022-10-24T10:39:39;96770.63;;;15.57;100.00
36598;BME280;22607;49.550;11.940;2022-10-24T10:42:13;96788.56;;;15.48;100.00
36598;BME280;22607;49.550;11.940;2022-10-24T10:47:23;96813.00;;;15.51;100.00
36598;BME280;22607;49.550;11.940;2022-10-24T10:49:56;96817.28;;;15.25;100.00
36598;BME280;22607;49.550;11.940;2022-10-24T10:52:36;96843.72;;;15.18;100.00
36598;BME280;22607;49.550;11.940;2022-10-24T10:58:25;96833.75;;;15.47;100.00
36598;BME280;22607;49.550;11.940;2022-10-24T11:10:41;96841.72;;;15.47;100.00
36598;BME280;22607;49.550;11.940;2022-10-24T11:13:17;96831.94;;;15.34;100.00
36598;BME280;22607;49.550;11.940;2022-10-24T11:15:46;96818.69;;;15.47;100.00
36598;BME280;22607;49.550;11.940;2022-10-24T11:20:45;96830.28;;;15.33;100.00
36598;BME280;22607;49.550;11.940;2022-10-24T11:23:26;96840.09;;;15.53;100.00
36598;BME280;22607;49.550;11.940;2022-10-24T11:28:26;96798.13;;;15.56;100.00
36598;BME280;22607;49.550;11.940;2022-10-24T11:31:05;96784.09;;;15.42;100.00
36598;BME280;22607;49.550;11.940;2022-10-24T11:33:56;96753.34;;;15.34;100.00
36598;BME280;22607;49.550;11.940;2022-10-24T11:44:14;96747.47;;;15.39;100.00
36598;BME280;22607;49.550;11.940;2022-10-24T11:46:43;96744.59;;;15.47;100.00
36598;BME280;22607;49.550;11.940;2022-10-24T11:49:17;96738.28;;;15.48;100.00
36598;BME280;22607;49.550;11.940;2022-10-24T11:54:22;96736.88;;;15.46;100.00
36598;BME280;22607;49.550;11.940;2022-10-24T11:59:20;96761.69;;;15.52;100.00
36598;BME280;22607;49.550;11.940;2022-10-24T12:01:57;96762.72;;;15.51;100.00
36598;BME280;22607;49.550;11.940;2022-10-24T12:12:41;96784.91;;;15.43;100.00
36598;BME280;22607;49.550;11.940;2022-10-24T12:20:16;96718.06;;;15.68;100.00
36598;BME280;22607;49.550;11.940;2022-10-24T12:22:44;96715.44;;;15.68;100.00
36598;BME280;22607;49.550;11.940;2022-10-24T12:25:26;96722.00;;;15.45;100.00
36598;BME280;22607;49.550;11.940;2022-10-24T12:31:09;96746.25;;;15.21;100.00
36598;BME280;22607;49.550;11.940;2022-10-24T12:33:36;96747.47;;;15.19;100.00
36598;BME280;22607;49.550;11.940;2022-10-24T12:36:03;96745.81;;;15.31;100.00
36598;BME280;22607;49.550;11.940;2022-10-24T12:45:53;96742.53;;;15.63;100.00
36598;BME280;22607;49.550;11.940;2022-10-24T12:48:30;96749.09;;;15.40;100.00
36598;BME280;22607;49.550;11.940;2022-10-24T12:50:58;96740.69;;;15.64;100.00
36598;BME280;22607;49.550;11.940;2022-10-24T12:53:29;96736.75;;;15.86;100.00
36598;BME280;22607;49.550;11.940;2022-10-24T12:58:34;96735.56;;;15.75;100.00
36598;BME280;22607;49.550;11.940;2022-10-24T13:11:40;96723.44;;;16.20;100.00
36598;BME280;22607;49.550;11.940;2022-10-24T13:14:15;96724.16;;;15.88;100.00
36598;BME280;22607;49.550;11.940;2022-10-24T13:19:16;96727.28;;;16.24;100.00
36598;BME280;22607;49.550;11.940;2022-10-24T13:21:45;96719.75;;;16.21;100.00
36598;BME280;22607;49.550;11.940;2022-10-24T13:26:45;96714.44;;;16.21;100.00
36598;BME280;22607;49.550;11.940;2022-10-24T13:31:54;96718.09;;;16.27;100.00
36598;BME280;22607;49.550;11.940;2022-10-24T13:37:19;96719.19;;;16.12;100.00
36598;BME280;22607;49.550;11.940;2022-10-24T13:39:54;96721.63;;;16.14;100.00
36598;BME280;22607;49.550;11.940;2022-10-24T13:44:51;96721.75;;;16.33;100.00
36598;BME280;22607;49.550;11.940;2022-10-24T13:47:24;96718.47;;;16.31;100.00
36598;BME280;22607;49.550;11.940;2022-10-24T13:50:16;96719.63;;;16.48;100.00
36598;BME280;22607;49.550;11.940;2022-10-24T13:55:20;96730.84;;;16.05;100.00
36598;BME280;22607;49.550;11.940;2022-10-24T13:57:50;96724.88;;;16.16;100.00
36598;BME280;22607;49.550;11.940;2022-10-24T14:00:18;96731.06;;;15.96;100.00
36598;BME280;22607;49.550;11.940;2022-10-24T14:02:46;96725.78;;;15.96;100.00
36598;BME280;22607;49.550;11.940;2022-10-24T14:05:22;96731.03;;;16.10;100.00
36598;BME280;22607;49.550;11.940;2022-10-24T14:07:53;96734.50;;;16.04;100.00
36598;BME280;22607;49.550;11.940;2022-10-24T14:10:29;96733.91;;;16.01;100.00
36598;BME280;22607;49.550;11.940;2022-10-24T14:12:55;96728.91;;;16.25;100.00
36598;BME280;22607;49.550;11.940;2022-10-24T14:15:32;96724.91;;;16.09;100.00
36598;BME280;22607;49.550;11.940;2022-10-24T14:18:00;96719.25;;;15.99;100.00
36598;BME280;22607;49.550;11.940;2022-10-24T14:20:31;96716.75;;;16.11;100.00
36598;BME280;22607;49.550;11.940;2022-10-24T14:22:59;96720.25;;;16.05;100.00
36598;BME280;22607;49.550;11.940;2022-10-24T14:25:27;96720.06;;;15.93;100.00
36598;BME280;22607;49.550;11.940;2022-10-24T14:27:57;96711.47;;;16.04;100.00
36598;BME280;22607;49.550;11.940;2022-10-24T14:30:24;96722.72;;;15.99;100.00
36598;BME280;22607;49.550;11.940;2022-10-24T14:33:03;96726.75;;;16.09;100.00
36598;BME280;22607;49.550;11.940;2022-10-24T14:35:30;96726.50;;;16.17;100.00
36598;BME280;22607;49.550;11.940;2022-10-24T14:37:58;96726.78;;;16.02;100.00
36598;BME280;22607;49.550;11.940;2022-10-24T14:40:24;96717.59;;;16.05;100.00
36598;BME280;22607;49.550;11.940;2022-10-24T14:42:53;96712.84;;;16.20;100.00
36598;BME280;22607;49.550;11.940;2022-10-24T14:45:23;96703.69;;;16.16;100.00
36598;BME280;22607;49.550;11.940;2022-10-24T14:50:36;96718.41;;;15.98;100.00
36598;BME280;22607;49.550;11.940;2022-10-24T14:53:03;96715.19;;;15.83;100.00